Terminal Aerodrome Forecast
Issued by NWS

Home | Current Version | Previous Version | Graphics & Text | Print | Product List | Glossary On
Versions: 1 2 3 4 5 6 7 8 9 10 11 12 13 14
010
FTUS45 KGGW 291720
TAFSDY
TAF
KSDY 291720Z 2918/3018 24008KT P6SM FEW130
     FM300300 VRB04KT P6SM SCT140
     FM300900 00000KT P6SM VCSH BKN130=

USA.gov is the U.S. government's official web portal to all federal, state and local government web resources and services.